sensor_id;sensor_type;location;lat;lon;timestamp;P1;durP1;ratioP1;P2;durP2;ratioP2
20065;SDS011;10193;48.884;9.182;2022-11-18T00:02:02;0.30;;;0.30;;
20065;SDS011;10193;48.884;9.182;2022-11-18T00:04:30;0.30;;;0.30;;
20065;SDS011;10193;48.884;9.182;2022-11-18T00:06:57;0.30;;;0.30;;
20065;SDS011;10193;48.884;9.182;2022-11-18T00:09:23;1.58;;;0.30;;
20065;SDS011;10193;48.884;9.182;2022-11-18T00:11:50;0.20;;;0.20;;
20065;SDS011;10193;48.884;9.182;2022-11-18T00:14:34;0.43;;;0.20;;
20065;SDS011;10193;48.884;9.182;2022-11-18T00:17:02;0.20;;;0.20;;
20065;SDS011;10193;48.884;9.182;2022-11-18T00:19:31;0.32;;;0.20;;
20065;SDS011;10193;48.884;9.182;2022-11-18T00:22:00;0.20;;;0.20;;
20065;SDS011;10193;48.884;9.182;2022-11-18T00:24:27;0.20;;;0.20;;
20065;SDS011;10193;48.884;9.182;2022-11-18T00:26:54;0.43;;;0.20;;
20065;SDS011;10193;48.884;9.182;2022-11-18T00:29:21;0.50;;;0.40;;
20065;SDS011;10193;48.884;9.182;2022-11-18T00:31:50;0.73;;;0.47;;
20065;SDS011;10193;48.884;9.182;2022-11-18T00:34:16;0.40;;;0.28;;
20065;SDS011;10193;48.884;9.182;2022-11-18T00:36:45;0.50;;;0.35;;
20065;SDS011;10193;48.884;9.182;2022-11-18T00:39:13;0.40;;;0.30;;
20065;SDS011;10193;48.884;9.182;2022-11-18T00:41:41;0.30;;;0.20;;
20065;SDS011;10193;48.884;9.182;2022-11-18T00:44:25;0.28;;;0.28;;
20065;SDS011;10193;48.884;9.182;2022-11-18T00:46:52;0.50;;;0.30;;
20065;SDS011;10193;48.884;9.182;2022-11-18T00:49:19;0.55;;;0.20;;
20065;SDS011;10193;48.884;9.182;2022-11-18T00:51:47;0.50;;;0.30;;
20065;SDS011;10193;48.884;9.182;2022-11-18T00:54:14;0.45;;;0.30;;
20065;SDS011;10193;48.884;9.182;2022-11-18T00:56:40;0.30;;;0.30;;
20065;SDS011;10193;48.884;9.182;2022-11-18T00:59:07;0.52;;;0.30;;
20065;SDS011;10193;48.884;9.182;2022-11-18T01:01:34;0.35;;;0.30;;
20065;SDS011;10193;48.884;9.182;2022-11-18T01:04:01;0.22;;;0.22;;
20065;SDS011;10193;48.884;9.182;2022-11-18T01:06:28;0.30;;;0.30;;
20065;SDS011;10193;48.884;9.182;2022-11-18T01:08:56;0.30;;;0.30;;
20065;SDS011;10193;48.884;9.182;2022-11-18T01:11:23;0.20;;;0.20;;
20065;SDS011;10193;48.884;9.182;2022-11-18T01:14:07;0.35;;;0.30;;
20065;SDS011;10193;48.884;9.182;2022-11-18T01:16:34;0.32;;;0.20;;
20065;SDS011;10193;48.884;9.182;2022-11-18T01:19:00;0.30;;;0.30;;
20065;SDS011;10193;48.884;9.182;2022-11-18T01:21:27;0.35;;;0.20;;
20065;SDS011;10193;48.884;9.182;2022-11-18T01:23:54;0.20;;;0.20;;
20065;SDS011;10193;48.884;9.182;2022-11-18T01:26:22;0.32;;;0.30;;
20065;SDS011;10193;48.884;9.182;2022-11-18T01:28:48;0.22;;;0.22;;
20065;SDS011;10193;48.884;9.182;2022-11-18T01:31:16;0.20;;;0.20;;
20065;SDS011;10193;48.884;9.182;2022-11-18T01:33:44;0.38;;;0.28;;
20065;SDS011;10193;48.884;9.182;2022-11-18T01:36:15;1.02;;;0.40;;
20065;SDS011;10193;48.884;9.182;2022-11-18T01:38:42;0.30;;;0.30;;
20065;SDS011;10193;48.884;9.182;2022-11-18T01:41:09;0.75;;;0.40;;
20065;SDS011;10193;48.884;9.182;2022-11-18T01:43:51;0.25;;;0.20;;
20065;SDS011;10193;48.884;9.182;2022-11-18T01:46:19;0.57;;;0.40;;
20065;SDS011;10193;48.884;9.182;2022-11-18T01:48:47;0.50;;;0.30;;
20065;SDS011;10193;48.884;9.182;2022-11-18T01:51:18;0.40;;;0.30;;
20065;SDS011;10193;48.884;9.182;2022-11-18T01:53:50;0.40;;;0.38;;
20065;SDS011;10193;48.884;9.182;2022-11-18T01:56:24;0.40;;;0.40;;
20065;SDS011;10193;48.884;9.182;2022-11-18T01:58:58;1.17;;;0.30;;
20065;SDS011;10193;48.884;9.182;2022-11-18T02:01:28;0.30;;;0.30;;
20065;SDS011;10193;48.884;9.182;2022-11-18T02:03:55;0.20;;;0.20;;
20065;SDS011;10193;48.884;9.182;2022-11-18T02:06:22;0.30;;;0.20;;
20065;SDS011;10193;48.884;9.182;2022-11-18T02:08:49;1.38;;;0.40;;
20065;SDS011;10193;48.884;9.182;2022-11-18T02:11:16;0.30;;;0.30;;
20065;SDS011;10193;48.884;9.182;2022-11-18T02:14:03;1.20;;;0.60;;
20065;SDS011;10193;48.884;9.182;2022-11-18T02:16:34;0.95;;;0.30;;
20065;SDS011;10193;48.884;9.182;2022-11-18T02:19:12;0.50;;;0.40;;
20065;SDS011;10193;48.884;9.182;2022-11-18T02:21:54;0.35;;;0.35;;
20065;SDS011;10193;48.884;9.182;2022-11-18T02:24:35;0.30;;;0.30;;
20065;SDS011;10193;48.884;9.182;2022-11-18T02:27:21;0.65;;;0.30;;
20065;SDS011;10193;48.884;9.182;2022-11-18T02:30:12;1.08;;;0.50;;
20065;SDS011;10193;48.884;9.182;2022-11-18T02:32:42;0.20;;;0.20;;
20065;SDS011;10193;48.884;9.182;2022-11-18T02:35:15;0.22;;;0.22;;
20065;SDS011;10193;48.884;9.182;2022-11-18T02:37:48;0.20;;;0.20;;
20065;SDS011;10193;48.884;9.182;2022-11-18T02:40:20;0.20;;;0.20;;
20065;SDS011;10193;48.884;9.182;2022-11-18T02:42:51;0.30;;;0.30;;
20065;SDS011;10193;48.884;9.182;2022-11-18T02:45:22;0.73;;;0.20;;
20065;SDS011;10193;48.884;9.182;2022-11-18T02:47:51;0.40;;;0.28;;
20065;SDS011;10193;48.884;9.182;2022-11-18T02:50:20;0.30;;;0.30;;
20065;SDS011;10193;48.884;9.182;2022-11-18T02:52:50;0.38;;;0.32;;
20065;SDS011;10193;48.884;9.182;2022-11-18T02:55:21;0.30;;;0.30;;
20065;SDS011;10193;48.884;9.182;2022-11-18T02:57:50;0.70;;;0.50;;
20065;SDS011;10193;48.884;9.182;2022-11-18T03:00:17;0.28;;;0.28;;
20065;SDS011;10193;48.884;9.182;2022-11-18T03:02:46;0.93;;;0.22;;
20065;SDS011;10193;48.884;9.182;2022-11-18T03:05:15;0.20;;;0.20;;
20065;SDS011;10193;48.884;9.182;2022-11-18T03:08:01;0.20;;;0.20;;
20065;SDS011;10193;48.884;9.182;2022-11-18T03:10:37;0.20;;;0.20;;
20065;SDS011;10193;48.884;9.182;2022-11-18T03:13:13;0.30;;;0.30;;
20065;SDS011;10193;48.884;9.182;2022-11-18T03:15:47;0.10;;;0.10;;
20065;SDS011;10193;48.884;9.182;2022-11-18T03:18:24;0.10;;;0.10;;
20065;SDS011;10193;48.884;9.182;2022-11-18T03:20:57;0.68;;;0.30;;
20065;SDS011;10193;48.884;9.182;2022-11-18T03:23:29;0.30;;;0.22;;
20065;SDS011;10193;48.884;9.182;2022-11-18T03:26:02;1.13;;;0.30;;
20065;SDS011;10193;48.884;9.182;2022-11-18T03:28:34;0.15;;;0.15;;
20065;SDS011;10193;48.884;9.182;2022-11-18T03:31:05;1.05;;;0.30;;
20065;SDS011;10193;48.884;9.182;2022-11-18T03:33:39;0.32;;;0.28;;
20065;SDS011;10193;48.884;9.182;2022-11-18T03:36:11;0.40;;;0.30;;
20065;SDS011;10193;48.884;9.182;2022-11-18T03:38:41;0.22;;;0.22;;
20065;SDS011;10193;48.884;9.182;2022-11-18T03:41:13;0.50;;;0.32;;
20065;SDS011;10193;48.884;9.182;2022-11-18T03:43:43;0.20;;;0.20;;
20065;SDS011;10193;48.884;9.182;2022-11-18T03:46:15;0.47;;;0.30;;
20065;SDS011;10193;48.884;9.182;2022-11-18T03:48:47;0.20;;;0.20;;
20065;SDS011;10193;48.884;9.182;2022-11-18T03:51:18;0.20;;;0.10;;
20065;SDS011;10193;48.884;9.182;2022-11-18T03:53:50;0.43;;;0.17;;
20065;SDS011;10193;48.884;9.182;2022-11-18T03:56:20;0.50;;;0.20;;
20065;SDS011;10193;48.884;9.182;2022-11-18T03:58:52;0.80;;;0.28;;
20065;SDS011;10193;48.884;9.182;2022-11-18T04:01:23;0.20;;;0.20;;
20065;SDS011;10193;48.884;9.182;2022-11-18T04:03:55;0.22;;;0.20;;
20065;SDS011;10193;48.884;9.182;2022-11-18T04:06:23;1.30;;;0.20;;
20065;SDS011;10193;48.884;9.182;2022-11-18T04:08:59;0.22;;;0.20;;
20065;SDS011;10193;48.884;9.182;2022-11-18T04:11:32;0.30;;;0.30;;
20065;SDS011;10193;48.884;9.182;2022-11-18T04:14:19;1.27;;;0.30;;
20065;SDS011;10193;48.884;9.182;2022-11-18T04:16:48;0.52;;;0.30;;
20065;SDS011;10193;48.884;9.182;2022-11-18T04:19:18;0.88;;;0.30;;
20065;SDS011;10193;48.884;9.182;2022-11-18T04:21:45;0.30;;;0.10;;
20065;SDS011;10193;48.884;9.182;2022-11-18T04:24:12;0.30;;;0.10;;
20065;SDS011;10193;48.884;9.182;2022-11-18T04:26:39;0.35;;;0.15;;
20065;SDS011;10193;48.884;9.182;2022-11-18T04:29:06;0.63;;;0.30;;
20065;SDS011;10193;48.884;9.182;2022-11-18T04:31:32;0.10;;;0.10;;
20065;SDS011;10193;48.884;9.182;2022-11-18T04:33:59;0.20;;;0.20;;
20065;SDS011;10193;48.884;9.182;2022-11-18T04:36:27;0.10;;;0.10;;
20065;SDS011;10193;48.884;9.182;2022-11-18T04:38:53;0.20;;;0.20;;
20065;SDS011;10193;48.884;9.182;2022-11-18T04:41:20;0.10;;;0.10;;
20065;SDS011;10193;48.884;9.182;2022-11-18T04:44:07;0.30;;;0.30;;
20065;SDS011;10193;48.884;9.182;2022-11-18T04:46:37;0.20;;;0.20;;
20065;SDS011;10193;48.884;9.182;2022-11-18T04:49:04;0.40;;;0.20;;
20065;SDS011;10193;48.884;9.182;2022-11-18T04:51:32;0.13;;;0.10;;
20065;SDS011;10193;48.884;9.182;2022-11-18T04:53:58;0.25;;;0.20;;
20065;SDS011;10193;48.884;9.182;2022-11-18T04:56:25;0.17;;;0.15;;
20065;SDS011;10193;48.884;9.182;2022-11-18T04:58:52;0.90;;;0.20;;
20065;SDS011;10193;48.884;9.182;2022-11-18T05:01:20;0.20;;;0.13;;
20065;SDS011;10193;48.884;9.182;2022-11-18T05:03:47;0.25;;;0.25;;
20065;SDS011;10193;48.884;9.182;2022-11-18T05:06:13;0.22;;;0.22;;
20065;SDS011;10193;48.884;9.182;2022-11-18T05:08:41;0.28;;;0.20;;
20065;SDS011;10193;48.884;9.182;2022-11-18T05:11:08;0.40;;;0.20;;
20065;SDS011;10193;48.884;9.182;2022-11-18T05:14:01;0.30;;;0.28;;
20065;SDS011;10193;48.884;9.182;2022-11-18T05:16:28;0.63;;;0.22;;
20065;SDS011;10193;48.884;9.182;2022-11-18T05:18:54;0.63;;;0.30;;
20065;SDS011;10193;48.884;9.182;2022-11-18T05:21:21;1.17;;;0.30;;
20065;SDS011;10193;48.884;9.182;2022-11-18T05:23:49;0.20;;;0.20;;
20065;SDS011;10193;48.884;9.182;2022-11-18T05:26:15;0.20;;;0.20;;
20065;SDS011;10193;48.884;9.182;2022-11-18T05:28:42;0.20;;;0.20;;
20065;SDS011;10193;48.884;9.182;2022-11-18T05:31:09;0.10;;;0.10;;
20065;SDS011;10193;48.884;9.182;2022-11-18T05:33:37;0.20;;;0.20;;
20065;SDS011;10193;48.884;9.182;2022-11-18T05:36:05;0.55;;;0.20;;
20065;SDS011;10193;48.884;9.182;2022-11-18T05:38:34;0.20;;;0.20;;
20065;SDS011;10193;48.884;9.182;2022-11-18T05:41:02;0.35;;;0.30;;
20065;SDS011;10193;48.884;9.182;2022-11-18T05:43:30;0.30;;;0.30;;
20065;SDS011;10193;48.884;9.182;2022-11-18T05:45:56;0.85;;;0.28;;
20065;SDS011;10193;48.884;9.182;2022-11-18T05:48:23;0.40;;;0.30;;
20065;SDS011;10193;48.884;9.182;2022-11-18T05:50:51;0.47;;;0.25;;
20065;SDS011;10193;48.884;9.182;2022-11-18T05:53:19;0.40;;;0.40;;
20065;SDS011;10193;48.884;9.182;2022-11-18T05:55:48;0.20;;;0.20;;
20065;SDS011;10193;48.884;9.182;2022-11-18T05:58:20;0.75;;;0.40;;
20065;SDS011;10193;48.884;9.182;2022-11-18T06:00:47;0.80;;;0.30;;
20065;SDS011;10193;48.884;9.182;2022-11-18T06:03:18;0.50;;;0.35;;
20065;SDS011;10193;48.884;9.182;2022-11-18T06:05:48;1.17;;;1.00;;
20065;SDS011;10193;48.884;9.182;2022-11-18T06:08:15;0.88;;;0.82;;
20065;SDS011;10193;48.884;9.182;2022-11-18T06:10:43;0.40;;;0.40;;
20065;SDS011;10193;48.884;9.182;2022-11-18T06:13:13;2.25;;;0.40;;
20065;SDS011;10193;48.884;9.182;2022-11-18T06:15:44;0.95;;;0.40;;
20065;SDS011;10193;48.884;9.182;2022-11-18T06:18:12;0.43;;;0.43;;
20065;SDS011;10193;48.884;9.182;2022-11-18T06:20:47;0.20;;;0.20;;
20065;SDS011;10193;48.884;9.182;2022-11-18T06:23:14;0.20;;;0.20;;
20065;SDS011;10193;48.884;9.182;2022-11-18T06:25:41;0.82;;;0.82;;
20065;SDS011;10193;48.884;9.182;2022-11-18T06:28:08;0.30;;;0.30;;
20065;SDS011;10193;48.884;9.182;2022-11-18T06:30:37;0.32;;;0.32;;
20065;SDS011;10193;48.884;9.182;2022-11-18T06:33:05;2.17;;;1.70;;
20065;SDS011;10193;48.884;9.182;2022-11-18T06:35:32;0.98;;;0.82;;
20065;SDS011;10193;48.884;9.182;2022-11-18T06:37:59;0.40;;;0.40;;
20065;SDS011;10193;48.884;9.182;2022-11-18T06:40:26;0.82;;;0.50;;
20065;SDS011;10193;48.884;9.182;2022-11-18T06:42:52;0.80;;;0.80;;
20065;SDS011;10193;48.884;9.182;2022-11-18T06:45:36;0.73;;;0.73;;
20065;SDS011;10193;48.884;9.182;2022-11-18T06:48:05;0.60;;;0.60;;
20065;SDS011;10193;48.884;9.182;2022-11-18T06:50:31;0.63;;;0.63;;
20065;SDS011;10193;48.884;9.182;2022-11-18T06:52:58;1.20;;;0.70;;
20065;SDS011;10193;48.884;9.182;2022-11-18T06:55:26;0.40;;;0.40;;
20065;SDS011;10193;48.884;9.182;2022-11-18T06:57:54;0.45;;;0.40;;
20065;SDS011;10193;48.884;9.182;2022-11-18T07:00:21;0.80;;;0.80;;
20065;SDS011;10193;48.884;9.182;2022-11-18T07:02:47;0.50;;;0.50;;
20065;SDS011;10193;48.884;9.182;2022-11-18T07:05:15;0.60;;;0.52;;
20065;SDS011;10193;48.884;9.182;2022-11-18T07:07:42;0.32;;;0.32;;
20065;SDS011;10193;48.884;9.182;2022-11-18T07:10:09;0.80;;;0.47;;
20065;SDS011;10193;48.884;9.182;2022-11-18T07:12:35;0.75;;;0.55;;
20065;SDS011;10193;48.884;9.182;2022-11-18T07:15:02;0.40;;;0.30;;
20065;SDS011;10193;48.884;9.182;2022-11-18T07:17:29;0.45;;;0.22;;
20065;SDS011;10193;48.884;9.182;2022-11-18T07:19:56;0.65;;;0.30;;
20065;SDS011;10193;48.884;9.182;2022-11-18T07:22:24;0.45;;;0.30;;
20065;SDS011;10193;48.884;9.182;2022-11-18T07:24:50;0.20;;;0.20;;
20065;SDS011;10193;48.884;9.182;2022-11-18T07:27:17;0.47;;;0.30;;
20065;SDS011;10193;48.884;9.182;2022-11-18T07:29:44;0.30;;;0.20;;
20065;SDS011;10193;48.884;9.182;2022-11-18T07:32:10;0.65;;;0.30;;
20065;SDS011;10193;48.884;9.182;2022-11-18T07:34:37;0.30;;;0.30;;
20065;SDS011;10193;48.884;9.182;2022-11-18T07:37:04;0.30;;;0.30;;
20065;SDS011;10193;48.884;9.182;2022-11-18T07:39:32;0.73;;;0.30;;
20065;SDS011;10193;48.884;9.182;2022-11-18T07:41:58;0.25;;;0.25;;
20065;SDS011;10193;48.884;9.182;2022-11-18T07:44:25;0.28;;;0.28;;
20065;SDS011;10193;48.884;9.182;2022-11-18T07:46:51;0.35;;;0.35;;
20065;SDS011;10193;48.884;9.182;2022-11-18T07:49:18;0.82;;;0.22;;
20065;SDS011;10193;48.884;9.182;2022-11-18T07:51:45;0.20;;;0.20;;
20065;SDS011;10193;48.884;9.182;2022-11-18T07:54:12;0.30;;;0.30;;
20065;SDS011;10193;48.884;9.182;2022-11-18T07:56:42;0.68;;;0.40;;
20065;SDS011;10193;48.884;9.182;2022-11-18T07:59:09;0.38;;;0.38;;
20065;SDS011;10193;48.884;9.182;2022-11-18T08:01:35;0.85;;;0.30;;
20065;SDS011;10193;48.884;9.182;2022-11-18T08:04:05;0.50;;;0.25;;
20065;SDS011;10193;48.884;9.182;2022-11-18T08:06:33;0.40;;;0.40;;
20065;SDS011;10193;48.884;9.182;2022-11-18T08:09:00;0.40;;;0.40;;
20065;SDS011;10193;48.884;9.182;2022-11-18T08:11:27;0.30;;;0.30;;
20065;SDS011;10193;48.884;9.182;2022-11-18T08:13:55;0.35;;;0.30;;
20065;SDS011;10193;48.884;9.182;2022-11-18T08:16:22;0.28;;;0.28;;
20065;SDS011;10193;48.884;9.182;2022-11-18T08:18:49;0.43;;;0.43;;
20065;SDS011;10193;48.884;9.182;2022-11-18T08:21:17;0.30;;;0.20;;
20065;SDS011;10193;48.884;9.182;2022-11-18T08:23:48;0.20;;;0.20;;
20065;SDS011;10193;48.884;9.182;2022-11-18T08:26:15;0.52;;;0.30;;
20065;SDS011;10193;48.884;9.182;2022-11-18T08:28:42;0.30;;;0.30;;
20065;SDS011;10193;48.884;9.182;2022-11-18T08:31:12;0.40;;;0.40;;
20065;SDS011;10193;48.884;9.182;2022-11-18T08:33:41;0.47;;;0.47;;
20065;SDS011;10193;48.884;9.182;2022-11-18T08:36:08;0.50;;;0.50;;
20065;SDS011;10193;48.884;9.182;2022-11-18T08:38:38;0.57;;;0.57;;
20065;SDS011;10193;48.884;9.182;2022-11-18T08:41:05;0.30;;;0.30;;
20065;SDS011;10193;48.884;9.182;2022-11-18T08:43:32;0.30;;;0.30;;
20065;SDS011;10193;48.884;9.182;2022-11-18T08:46:00;1.20;;;0.50;;
20065;SDS011;10193;48.884;9.182;2022-11-18T08:48:28;0.20;;;0.20;;
20065;SDS011;10193;48.884;9.182;2022-11-18T08:50:55;0.20;;;0.20;;
20065;SDS011;10193;48.884;9.182;2022-11-18T08:53:23;0.40;;;0.35;;
20065;SDS011;10193;48.884;9.182;2022-11-18T08:55:53;0.45;;;0.30;;
20065;SDS011;10193;48.884;9.182;2022-11-18T08:58:20;0.60;;;0.40;;
20065;SDS011;10193;48.884;9.182;2022-11-18T09:00:47;0.43;;;0.38;;
20065;SDS011;10193;48.884;9.182;2022-11-18T09:03:14;0.50;;;0.47;;
20065;SDS011;10193;48.884;9.182;2022-11-18T09:05:42;0.30;;;0.30;;
20065;SDS011;10193;48.884;9.182;2022-11-18T09:08:09;0.93;;;0.52;;
20065;SDS011;10193;48.884;9.182;2022-11-18T09:10:35;0.95;;;0.40;;
20065;SDS011;10193;48.884;9.182;2022-11-18T09:13:02;0.30;;;0.30;;
20065;SDS011;10193;48.884;9.182;2022-11-18T09:15:29;0.30;;;0.30;;
20065;SDS011;10193;48.884;9.182;2022-11-18T09:17:56;0.20;;;0.20;;
20065;SDS011;10193;48.884;9.182;2022-11-18T09:20:23;0.50;;;0.28;;
20065;SDS011;10193;48.884;9.182;2022-11-18T09:22:51;0.50;;;0.50;;
20065;SDS011;10193;48.884;9.182;2022-11-18T09:25:18;0.30;;;0.30;;
20065;SDS011;10193;48.884;9.182;2022-11-18T09:27:45;0.20;;;0.20;;
20065;SDS011;10193;48.884;9.182;2022-11-18T09:30:12;1.52;;;0.50;;
20065;SDS011;10193;48.884;9.182;2022-11-18T09:32:39;0.43;;;0.43;;
20065;SDS011;10193;48.884;9.182;2022-11-18T09:35:06;0.50;;;0.50;;
20065;SDS011;10193;48.884;9.182;2022-11-18T09:37:32;0.40;;;0.40;;
20065;SDS011;10193;48.884;9.182;2022-11-18T09:40:00;0.50;;;0.50;;
20065;SDS011;10193;48.884;9.182;2022-11-18T09:42:34;0.20;;;0.20;;
20065;SDS011;10193;48.884;9.182;2022-11-18T09:45:14;0.55;;;0.40;;
20065;SDS011;10193;48.884;9.182;2022-11-18T09:47:46;0.20;;;0.20;;
20065;SDS011;10193;48.884;9.182;2022-11-18T09:50:14;0.60;;;0.40;;
20065;SDS011;10193;48.884;9.182;2022-11-18T09:52:43;0.47;;;0.30;;
20065;SDS011;10193;48.884;9.182;2022-11-18T09:55:16;0.40;;;0.40;;
20065;SDS011;10193;48.884;9.182;2022-11-18T09:57:44;1.55;;;0.50;;
20065;SDS011;10193;48.884;9.182;2022-11-18T10:00:13;0.40;;;0.40;;
20065;SDS011;10193;48.884;9.182;2022-11-18T10:02:48;0.45;;;0.40;;
20065;SDS011;10193;48.884;9.182;2022-11-18T10:05:23;0.50;;;0.50;;
20065;SDS011;10193;48.884;9.182;2022-11-18T10:07:55;1.05;;;0.50;;
20065;SDS011;10193;48.884;9.182;2022-11-18T10:10:40;0.32;;;0.32;;
20065;SDS011;10193;48.884;9.182;2022-11-18T10:13:19;1.58;;;0.55;;
20065;SDS011;10193;48.884;9.182;2022-11-18T10:15:52;0.57;;;0.40;;
20065;SDS011;10193;48.884;9.182;2022-11-18T10:18:25;0.50;;;0.50;;
20065;SDS011;10193;48.884;9.182;2022-11-18T10:20:58;0.60;;;0.60;;
20065;SDS011;10193;48.884;9.182;2022-11-18T10:23:28;0.60;;;0.60;;
20065;SDS011;10193;48.884;9.182;2022-11-18T10:26:00;0.50;;;0.50;;
20065;SDS011;10193;48.884;9.182;2022-11-18T10:28:27;0.40;;;0.40;;
20065;SDS011;10193;48.884;9.182;2022-11-18T10:31:02;1.05;;;0.60;;
20065;SDS011;10193;48.884;9.182;2022-11-18T10:33:29;1.85;;;0.60;;
20065;SDS011;10193;48.884;9.182;2022-11-18T10:36:18;0.45;;;0.45;;
20065;SDS011;10193;48.884;9.182;2022-11-18T10:39:03;1.05;;;0.65;;
20065;SDS011;10193;48.884;9.182;2022-11-18T10:41:37;1.95;;;0.73;;
20065;SDS011;10193;48.884;9.182;2022-11-18T10:44:13;1.35;;;0.95;;
20065;SDS011;10193;48.884;9.182;2022-11-18T10:46:53;0.88;;;0.77;;
20065;SDS011;10193;48.884;9.182;2022-11-18T10:49:20;1.17;;;0.68;;
20065;SDS011;10193;48.884;9.182;2022-11-18T10:51:47;1.65;;;0.73;;
20065;SDS011;10193;48.884;9.182;2022-11-18T10:54:29;0.95;;;0.70;;
20065;SDS011;10193;48.884;9.182;2022-11-18T10:56:59;1.67;;;0.90;;
20065;SDS011;10193;48.884;9.182;2022-11-18T10:59:31;0.90;;;0.80;;
20065;SDS011;10193;48.884;9.182;2022-11-18T11:02:00;0.60;;;0.60;;
20065;SDS011;10193;48.884;9.182;2022-11-18T11:04:37;0.70;;;0.70;;
20065;SDS011;10193;48.884;9.182;2022-11-18T11:07:13;0.75;;;0.75;;
20065;SDS011;10193;48.884;9.182;2022-11-18T11:09:42;1.30;;;0.90;;
20065;SDS011;10193;48.884;9.182;2022-11-18T11:12:12;1.45;;;1.00;;
20065;SDS011;10193;48.884;9.182;2022-11-18T11:14:44;1.00;;;0.90;;
20065;SDS011;10193;48.884;9.182;2022-11-18T11:17:16;0.80;;;0.80;;
20065;SDS011;10193;48.884;9.182;2022-11-18T11:19:49;0.75;;;0.73;;
20065;SDS011;10193;48.884;9.182;2022-11-18T11:22:28;1.27;;;1.13;;
20065;SDS011;10193;48.884;9.182;2022-11-18T11:24:55;3.20;;;1.10;;
20065;SDS011;10193;48.884;9.182;2022-11-18T11:27:37;0.73;;;0.73;;
20065;SDS011;10193;48.884;9.182;2022-11-18T11:30:14;0.63;;;0.60;;
20065;SDS011;10193;48.884;9.182;2022-11-18T11:38:41;0.80;;;0.70;;
20065;SDS011;10193;48.884;9.182;2022-11-18T11:41:19;0.68;;;0.60;;
20065;SDS011;10193;48.884;9.182;2022-11-18T11:43:53;1.35;;;0.70;;
20065;SDS011;10193;48.884;9.182;2022-11-18T11:46:42;2.35;;;0.80;;
20065;SDS011;10193;48.884;9.182;2022-11-18T11:49:36;0.73;;;0.73;;
20065;SDS011;10193;48.884;9.182;2022-11-18T11:52:16;1.02;;;0.85;;
20065;SDS011;10193;48.884;9.182;2022-11-18T11:54:53;1.00;;;0.82;;
20065;SDS011;10193;48.884;9.182;2022-11-18T11:57:30;1.17;;;0.75;;
20065;SDS011;10193;48.884;9.182;2022-11-18T12:00:09;0.80;;;0.80;;
20065;SDS011;10193;48.884;9.182;2022-11-18T12:02:43;1.13;;;0.70;;
20065;SDS011;10193;48.884;9.182;2022-11-18T12:05:20;1.80;;;0.70;;
20065;SDS011;10193;48.884;9.182;2022-11-18T12:07:52;0.75;;;0.60;;
20065;SDS011;10193;48.884;9.182;2022-11-18T12:10:24;0.80;;;0.65;;
20065;SDS011;10193;48.884;9.182;2022-11-18T12:12:57;0.93;;;0.80;;
20065;SDS011;10193;48.884;9.182;2022-11-18T12:15:37;1.17;;;0.82;;
20065;SDS011;10193;48.884;9.182;2022-11-18T12:18:11;0.60;;;0.60;;
20065;SDS011;10193;48.884;9.182;2022-11-18T12:20:45;1.15;;;0.85;;
20065;SDS011;10193;48.884;9.182;2022-11-18T12:23:14;0.77;;;0.77;;
20065;SDS011;10193;48.884;9.182;2022-11-18T12:25:49;12.45;;;5.53;;
20065;SDS011;10193;48.884;9.182;2022-11-18T12:28:32;7.63;;;3.72;;
20065;SDS011;10193;48.884;9.182;2022-11-18T12:33:59;2.17;;;1.50;;
20065;SDS011;10193;48.884;9.182;2022-11-18T12:36:29;1.75;;;1.23;;
20065;SDS011;10193;48.884;9.182;2022-11-18T12:38:57;1.50;;;1.02;;
20065;SDS011;10193;48.884;9.182;2022-11-18T12:41:52;1.17;;;0.85;;
20065;SDS011;10193;48.884;9.182;2022-11-18T12:44:37;0.80;;;0.80;;
20065;SDS011;10193;48.884;9.182;2022-11-18T12:47:05;1.48;;;0.80;;
20065;SDS011;10193;48.884;9.182;2022-11-18T12:52:52;1.02;;;0.90;;
20065;SDS011;10193;48.884;9.182;2022-11-18T12:55:20;1.70;;;1.02;;
20065;SDS011;10193;48.884;9.182;2022-11-18T12:57:51;1.83;;;0.90;;
20065;SDS011;10193;48.884;9.182;2022-11-18T13:03:24;1.67;;;0.90;;
20065;SDS011;10193;48.884;9.182;2022-11-18T13:05:57;1.70;;;0.85;;
20065;SDS011;10193;48.884;9.182;2022-11-18T13:08:30;1.08;;;0.80;;
20065;SDS011;10193;48.884;9.182;2022-11-18T13:11:00;1.60;;;0.90;;
20065;SDS011;10193;48.884;9.182;2022-11-18T13:13:52;0.70;;;0.70;;
20065;SDS011;10193;48.884;9.182;2022-11-18T13:16:39;1.33;;;0.90;;
20065;SDS011;10193;48.884;9.182;2022-11-18T13:19:26;2.67;;;1.00;;
20065;SDS011;10193;48.884;9.182;2022-11-18T13:21:53;0.77;;;0.75;;
20065;SDS011;10193;48.884;9.182;2022-11-18T13:24:42;1.42;;;0.88;;
20065;SDS011;10193;48.884;9.182;2022-11-18T13:27:10;1.83;;;0.90;;
20065;SDS011;10193;48.884;9.182;2022-11-18T13:29:49;0.80;;;0.65;;
20065;SDS011;10193;48.884;9.182;2022-11-18T13:32:22;1.15;;;0.80;;
20065;SDS011;10193;48.884;9.182;2022-11-18T13:34:52;1.38;;;0.90;;
20065;SDS011;10193;48.884;9.182;2022-11-18T13:37:21;0.82;;;0.65;;
20065;SDS011;10193;48.884;9.182;2022-11-18T13:39:49;1.10;;;0.80;;
20065;SDS011;10193;48.884;9.182;2022-11-18T13:42:18;1.65;;;1.15;;
20065;SDS011;10193;48.884;9.182;2022-11-18T13:44:51;2.15;;;1.13;;
20065;SDS011;10193;48.884;9.182;2022-11-18T13:47:22;0.88;;;0.75;;
20065;SDS011;10193;48.884;9.182;2022-11-18T13:49:55;3.47;;;1.10;;
20065;SDS011;10193;48.884;9.182;2022-11-18T13:52:27;1.00;;;1.00;;
20065;SDS011;10193;48.884;9.182;2022-11-18T13:55:00;1.45;;;1.08;;
20065;SDS011;10193;48.884;9.182;2022-11-18T13:57:33;1.27;;;0.88;;
20065;SDS011;10193;48.884;9.182;2022-11-18T14:00:03;2.35;;;1.02;;
20065;SDS011;10193;48.884;9.182;2022-11-18T14:02:36;1.75;;;0.85;;
20065;SDS011;10193;48.884;9.182;2022-11-18T14:05:05;0.80;;;0.80;;
20065;SDS011;10193;48.884;9.182;2022-11-18T14:07:51;1.63;;;0.80;;
20065;SDS011;10193;48.884;9.182;2022-11-18T14:10:28;1.95;;;0.85;;
20065;SDS011;10193;48.884;9.182;2022-11-18T14:13:11;1.02;;;0.80;;
20065;SDS011;10193;48.884;9.182;2022-11-18T14:15:46;1.15;;;0.80;;
20065;SDS011;10193;48.884;9.182;2022-11-18T14:18:16;0.60;;;0.60;;
20065;SDS011;10193;48.884;9.182;2022-11-18T14:20:49;1.60;;;0.90;;
20065;SDS011;10193;48.884;9.182;2022-11-18T14:23:17;0.88;;;0.80;;
20065;SDS011;10193;48.884;9.182;2022-11-18T14:25:50;1.42;;;0.90;;
20065;SDS011;10193;48.884;9.182;2022-11-18T14:28:18;1.15;;;0.90;;
20065;SDS011;10193;48.884;9.182;2022-11-18T14:30:57;1.40;;;0.88;;
20065;SDS011;10193;48.884;9.182;2022-11-18T14:33:26;0.98;;;0.93;;
20065;SDS011;10193;48.884;9.182;2022-11-18T14:35:54;0.80;;;0.80;;
20065;SDS011;10193;48.884;9.182;2022-11-18T14:38:26;1.88;;;1.00;;
20065;SDS011;10193;48.884;9.182;2022-11-18T14:40:57;0.68;;;0.68;;
20065;SDS011;10193;48.884;9.182;2022-11-18T14:43:25;1.15;;;0.90;;
20065;SDS011;10193;48.884;9.182;2022-11-18T14:45:53;2.17;;;0.80;;
20065;SDS011;10193;48.884;9.182;2022-11-18T14:48:24;0.75;;;0.70;;
20065;SDS011;10193;48.884;9.182;2022-11-18T14:50:52;1.20;;;1.10;;
20065;SDS011;10193;48.884;9.182;2022-11-18T14:53:19;1.98;;;0.90;;
20065;SDS011;10193;48.884;9.182;2022-11-18T14:55:48;1.05;;;0.82;;
20065;SDS011;10193;48.884;9.182;2022-11-18T14:58:16;1.13;;;0.85;;
20065;SDS011;10193;48.884;9.182;2022-11-18T15:00:43;0.98;;;0.90;;
20065;SDS011;10193;48.884;9.182;2022-11-18T15:03:12;1.00;;;0.90;;
20065;SDS011;10193;48.884;9.182;2022-11-18T15:05:41;2.92;;;1.10;;
20065;SDS011;10193;48.884;9.182;2022-11-18T15:08:08;2.03;;;0.90;;
20065;SDS011;10193;48.884;9.182;2022-11-18T15:10:34;2.30;;;1.00;;
20065;SDS011;10193;48.884;9.182;2022-11-18T15:13:01;1.02;;;0.95;;
20065;SDS011;10193;48.884;9.182;2022-11-18T15:15:28;0.98;;;0.88;;
20065;SDS011;10193;48.884;9.182;2022-11-18T15:17:55;1.08;;;0.85;;
20065;SDS011;10193;48.884;9.182;2022-11-18T15:20:21;2.17;;;1.33;;
20065;SDS011;10193;48.884;9.182;2022-11-18T15:22:50;1.63;;;1.25;;
20065;SDS011;10193;48.884;9.182;2022-11-18T15:25:16;1.30;;;1.20;;